Time;durP1;ratioP1;P1;durP2;ratioP2;P2;SDS_P1;SDS_P2;PMS_P1;PMS_P2;Temp;Humidity;BMP_temperature;BMP_pressure;BME280_temperature;BME280_humidity;BME280_pressure;Samples;Min_cycle;Max_cycle;Signal;HPM_P1;HPM_P2
2022/08/27 00:00:30;;;;;;;5.45;1.73;;;18.70;99.90;;;;;;5088357;28;20036;-78
2022/08/27 00:02:56;;;;;;;4.93;1.75;;;18.60;99.90;;;;;;5093865;28;20487;-78
2022/08/27 00:05:22;;;;;;;5.55;1.60;;;18.60;99.90;;;;;;5088318;28;20040;-79
2022/08/27 00:07:48;;;;;;;5.72;1.75;;;18.60;99.90;;;;;;5071020;28;20391;-78
2022/08/27 00:10:20;;;;;;;6.53;1.70;;;18.60;99.90;;;;;;5084568;28;20087;-78
2022/08/27 00:12:47;;;;;;;10.40;1.95;;;18.60;99.90;;;;;;5089191;28;20032;-78
2022/08/27 00:15:14;;;;;;;6.53;1.73;;;18.60;99.90;;;;;;5085521;28;20032;-78
2022/08/27 00:17:41;;;;;;;5.85;2.00;;;18.60;99.90;;;;;;5076761;28;20039;-78
2022/08/27 00:20:07;;;;;;;6.50;1.80;;;18.60;99.90;;;;;;5090061;28;20036;-78
2022/08/27 00:22:33;;;;;;;6.37;1.97;;;18.60;99.90;;;;;;5090773;28;20320;-78
2022/08/27 00:24:58;;;;;;;8.90;2.13;;;18.60;99.90;;;;;;5092128;28;20306;-78
2022/08/27 00:27:24;;;;;;;6.88;1.80;;;18.60;99.90;;;;;;5089871;28;20048;-78
2022/08/27 00:29:50;;;;;;;6.10;1.77;;;18.50;99.90;;;;;;5100205;28;20054;-78
2022/08/27 00:32:16;;;;;;;5.47;1.63;;;18.60;99.90;;;;;;5101619;28;20068;-79
2022/08/27 00:34:41;;;;;;;6.22;1.80;;;18.60;99.90;;;;;;5084441;28;20066;-77
2022/08/27 00:37:07;;;;;;;6.80;1.92;;;18.60;99.90;;;;;;5096214;28;20483;-79
2022/08/27 00:39:35;;;;;;;7.07;2.08;;;18.60;99.90;;;;;;5088356;28;20035;-78
2022/08/27 00:42:02;;;;;;;6.82;2.10;;;18.50;99.90;;;;;;5070589;28;20119;-78
2022/08/27 00:44:28;;;;;;;6.53;1.93;;;18.50;99.90;;;;;;5069815;28;20079;-78
2022/08/27 00:46:59;;;;;;;7.00;1.88;;;18.50;99.90;;;;;;5072931;28;20651;-77
2022/08/27 00:49:31;;;;;;;7.97;1.80;;;18.40;99.90;;;;;;5069941;28;20545;-78
2022/08/27 00:52:05;;;;;;;6.05;1.85;;;18.40;99.90;;;;;;5070509;28;20056;-78
2022/08/27 00:54:31;;;;;;;7.00;2.00;;;18.40;99.90;;;;;;5091946;28;20048;-78
2022/08/27 00:56:59;;;;;;;7.50;1.90;;;18.30;99.90;;;;;;5086930;28;20044;-78
2022/08/27 00:59:31;;;;;;;3.83;1.65;;;18.30;99.90;;;;;;5066649;28;20406;-78
2022/08/27 01:02:19;;;;;;;4.70;1.70;;;18.30;99.90;;;;;;5064350;28;20655;-78
2022/08/27 01:05:01;;;;;;;7.95;1.98;;;18.30;99.90;;;;;;5082487;28;20036;-77
2022/08/27 01:07:29;;;;;;;4.28;1.90;;;18.20;99.90;;;;;;5067680;28;20387;-78
2022/08/27 01:09:58;;;;;;;6.70;2.38;;;18.20;99.90;;;;;;5085743;28;20047;-79
2022/08/27 01:12:24;;;;;;;8.52;2.25;;;18.20;99.90;;;;;;5085669;28;20037;-78
2022/08/27 01:14:50;;;;;;;6.50;1.80;;;18.20;99.90;;;;;;5062764;28;20109;-78
2022/08/27 01:17:16;;;;;;;4.45;1.67;;;18.10;99.90;;;;;;5068841;28;20483;-78
2022/08/27 01:19:56;;;;;;;8.30;1.90;;;18.10;99.90;;;;;;5087047;28;20048;-78
2022/08/27 01:22:44;;;;;;;6.75;1.85;;;18.00;99.90;;;;;;5089458;28;20048;-78
2022/08/27 01:25:14;;;;;;;4.78;1.67;;;18.10;99.90;;;;;;5069333;28;20052;-78
2022/08/27 01:27:42;;;;;;;6.43;2.42;;;18.10;99.90;;;;;;5065477;28;20074;-78
2022/08/27 01:30:10;;;;;;;7.40;1.92;;;18.10;99.90;;;;;;5064605;28;20052;-78
2022/08/27 01:32:37;;;;;;;6.53;2.03;;;18.00;99.90;;;;;;5069161;28;20043;-77
2022/08/27 01:35:08;;;;;;;5.70;2.00;;;18.00;99.90;;;;;;5097077;28;20047;-78
2022/08/27 01:37:35;;;;;;;6.78;2.03;;;18.00;99.90;;;;;;5072344;28;20438;-78
2022/08/27 01:40:01;;;;;;;7.55;2.00;;;18.00;99.90;;;;;;5091915;28;20053;-78
2022/08/27 01:42:41;;;;;;;7.05;1.98;;;18.00;99.90;;;;;;5088453;28;20040;-78
2022/08/27 01:45:16;;;;;;;6.47;2.13;;;17.90;99.90;;;;;;5068928;28;20036;-78
2022/08/27 01:47:42;;;;;;;4.93;1.90;;;17.90;99.90;;;;;;5066317;28;20043;-78
2022/08/27 01:50:13;;;;;;;4.63;1.83;;;17.90;99.90;;;;;;5072524;28;20062;-78
2022/08/27 01:52:39;;;;;;;6.10;2.03;;;17.90;99.90;;;;;;5070264;28;20039;-78
2022/08/27 01:55:07;;;;;;;7.70;2.10;;;17.80;99.90;;;;;;5068250;28;20051;-78
2022/08/27 01:57:34;;;;;;;7.13;2.10;;;17.80;99.90;;;;;;5072554;28;20043;-78
2022/08/27 02:00:01;;;;;;;6.68;1.90;;;17.90;99.90;;;;;;5072886;28;20502;-78
2022/08/27 02:02:27;;;;;;;5.20;1.65;;;17.80;99.90;;;;;;5089257;28;20420;-78
2022/08/27 02:04:53;;;;;;;6.22;2.05;;;17.80;99.90;;;;;;5065231;28;20059;-78
2022/08/27 02:07:19;;;;;;;4.88;1.70;;;17.80;99.90;;;;;;5083143;28;20042;-78
2022/08/27 02:09:44;;;;;;;7.78;2.40;;;17.80;99.90;;;;;;5066074;28;20069;-79
2022/08/27 02:12:10;;;;;;;9.32;2.50;;;17.80;99.90;;;;;;5073085;28;20155;-78
2022/08/27 02:14:36;;;;;;;8.50;2.10;;;17.80;99.90;;;;;;5088559;28;20042;-78
2022/08/27 02:17:01;;;;;;;6.07;2.28;;;17.70;99.90;;;;;;5076816;28;20372;-78
2022/08/27 02:19:28;;;;;;;4.53;2.15;;;17.70;99.90;;;;;;5085110;28;20035;-78
2022/08/27 02:21:53;;;;;;;5.93;2.00;;;17.70;99.90;;;;;;5082991;28;20046;-79
2022/08/27 02:24:19;;;;;;;7.13;2.30;;;17.70;99.90;;;;;;5061988;28;20036;-78
2022/08/27 02:26:45;;;;;;;5.97;2.05;;;17.80;99.90;;;;;;5069108;28;20462;-78
2022/08/27 02:29:11;;;;;;;8.27;2.38;;;17.80;99.90;;;;;;5083515;28;20160;-78
2022/08/27 02:31:37;;;;;;;5.32;2.05;;;17.80;99.90;;;;;;5070182;28;20051;-78
2022/08/27 02:34:03;;;;;;;7.15;2.03;;;17.80;99.90;;;;;;5070780;28;20399;-78
2022/08/27 02:36:29;;;;;;;6.53;1.98;;;17.80;99.90;;;;;;5064264;28;20175;-77
2022/08/27 02:38:55;;;;;;;6.28;2.33;;;17.80;99.90;;;;;;5087530;28;20162;-78
2022/08/27 02:41:21;;;;;;;8.23;2.00;;;17.70;99.90;;;;;;5068050;28;20048;-78
2022/08/27 02:43:47;;;;;;;5.30;2.00;;;17.80;99.90;;;;;;5066558;28;20036;-78
2022/08/27 02:46:13;;;;;;;8.48;2.03;;;17.80;99.90;;;;;;5069034;28;20762;-78
2022/08/27 02:48:40;;;;;;;6.07;1.98;;;17.80;99.90;;;;;;5079748;28;20040;-78
2022/08/27 02:51:06;;;;;;;4.65;1.77;;;17.80;99.90;;;;;;5089635;28;20185;-78
2022/08/27 02:53:33;;;;;;;6.03;1.75;;;17.80;99.90;;;;;;5068407;28;20778;-79
2022/08/27 02:55:59;;;;;;;8.30;2.15;;;17.80;99.90;;;;;;5067521;28;20072;-78
2022/08/27 02:58:25;;;;;;;6.78;1.88;;;17.70;99.90;;;;;;5092864;28;20124;-78
2022/08/27 03:00:51;;;;;;;5.22;1.77;;;17.70;99.90;;;;;;5070044;28;20044;-78
2022/08/27 03:03:16;;;;;;;5.15;1.80;;;17.70;99.90;;;;;;5081899;28;20028;-79
2022/08/27 03:05:42;;;;;;;4.38;1.65;;;17.70;99.90;;;;;;5066936;28;20047;-78
2022/08/27 03:08:08;;;;;;;4.10;1.60;;;17.70;99.90;;;;;;5070945;28;20040;-78
2022/08/27 03:10:35;;;;;;;5.32;1.85;;;17.60;99.90;;;;;;5064400;28;20048;-78
2022/08/27 03:13:00;;;;;;;7.20;2.00;;;17.60;99.90;;;;;;5069105;28;20479;-79
2022/08/27 03:15:26;;;;;;;6.45;2.20;;;17.60;99.90;;;;;;5078639;28;20041;-78
2022/08/27 03:20:39;;;;;;;6.90;1.83;;;17.60;99.90;;;;;;5066334;28;20051;-78
2022/08/27 03:23:06;;;;;;;5.72;1.90;;;17.60;99.90;;;;;;5064942;28;20044;-78
2022/08/27 03:25:32;;;;;;;6.80;1.85;;;17.60;99.90;;;;;;5083709;28;20106;-78
2022/08/27 03:27:57;;;;;;;6.25;2.28;;;17.60;99.90;;;;;;5062385;28;21024;-78
2022/08/27 03:30:25;;;;;;;9.55;2.60;;;17.60;99.90;;;;;;5083704;28;20051;-78
2022/08/27 03:32:51;;;;;;;3.63;1.50;;;17.60;99.90;;;;;;5080299;28;20047;-78
2022/08/27 03:35:18;;;;;;;4.80;1.90;;;17.60;99.90;;;;;;5069749;28;20136;-79
2022/08/27 03:37:44;;;;;;;;;;;17.60;99.90;;;;;;5086205;28;20044;-78
2022/08/27 03:40:10;;;;;;;8.00;1.63;;;17.50;99.90;;;;;;5086335;28;19927;-79
2022/08/27 03:42:37;;;;;;;8.00;2.20;;;17.50;99.90;;;;;;5082310;28;20134;-78
2022/08/27 03:45:03;;;;;;;4.85;1.95;;;17.50;99.90;;;;;;5089945;28;20043;-78
2022/08/27 03:47:29;;;;;;;7.28;1.67;;;17.50;99.90;;;;;;5078351;28;20043;-79
2022/08/27 03:49:55;;;;;;;5.53;1.70;;;17.50;99.90;;;;;;5089757;28;20051;-78
2022/08/27 03:52:21;;;;;;;7.88;2.03;;;17.50;99.90;;;;;;5075086;28;20043;-78
2022/08/27 03:54:46;;;;;;;7.30;1.83;;;17.40;99.90;;;;;;5069384;28;20054;-78
2022/08/27 03:57:12;;;;;;;7.50;2.22;;;17.40;99.90;;;;;;5096269;28;20382;-78
2022/08/27 03:59:38;;;;;;;5.85;2.28;;;17.40;99.90;;;;;;5077988;28;20039;-78
2022/08/27 04:02:04;;;;;;;5.53;1.80;;;17.40;99.90;;;;;;5086991;28;20093;-78
2022/08/27 04:04:30;;;;;;;7.88;2.35;;;17.40;99.90;;;;;;5072226;28;20045;-78
2022/08/27 04:06:56;;;;;;;6.60;2.00;;;17.40;99.90;;;;;;5072909;28;20063;-78
2022/08/27 04:09:22;;;;;;;7.93;2.15;;;17.40;99.90;;;;;;5069857;28;20076;-78
2022/08/27 04:11:48;;;;;;;7.47;2.20;;;17.40;99.90;;;;;;5089254;28;20096;-79
2022/08/27 04:14:14;;;;;;;7.47;2.10;;;17.30;99.90;;;;;;5087088;28;20131;-78
2022/08/27 04:16:40;;;;;;;6.95;2.28;;;17.40;99.90;;;;;;5070348;28;20545;-78
2022/08/27 04:19:06;;;;;;;6.40;2.13;;;17.30;99.90;;;;;;5083312;28;20123;-79
2022/08/27 04:21:34;;;;;;;9.90;2.10;;;17.30;99.90;;;;;;5081534;28;20053;-78
2022/08/27 04:24:00;;;;;;;7.75;1.98;;;17.40;99.90;;;;;;5087563;28;20441;-78
2022/08/27 04:26:27;;;;;;;5.35;1.92;;;17.40;99.90;;;;;;5088347;28;20044;-77
2022/08/27 04:28:52;;;;;;;4.10;1.80;;;17.40;99.90;;;;;;5087327;28;20518;-78
2022/08/27 04:31:20;;;;;;;5.93;1.95;;;17.40;99.90;;;;;;5089197;28;20083;-78
2022/08/27 04:33:47;;;;;;;5.68;1.98;;;17.40;99.90;;;;;;5068178;28;20040;-78
2022/08/27 04:36:13;;;;;;;6.00;1.70;;;17.40;99.90;;;;;;5083180;28;20044;-78
2022/08/27 04:38:39;;;;;;;7.85;2.00;;;17.40;99.90;;;;;;5089235;28;20545;-78
2022/08/27 04:41:25;;;;;;;4.88;1.90;;;17.40;99.90;;;;;;5067434;28;20048;-78
2022/08/27 04:43:56;;;;;;;6.68;1.73;;;17.40;99.90;;;;;;5077481;28;20044;-78
2022/08/27 04:46:31;;;;;;;6.90;1.98;;;17.40;99.90;;;;;;5089343;28;20048;-78
2022/08/27 04:48:59;;;;;;;5.22;1.70;;;17.40;99.90;;;;;;5080562;28;20490;-78
2022/08/27 04:51:26;;;;;;;5.78;1.70;;;17.30;99.90;;;;;;5092657;28;20093;-78
2022/08/27 04:53:51;;;;;;;5.80;1.75;;;17.40;99.90;;;;;;5064106;28;20402;-78
2022/08/27 04:56:21;;;;;;;9.73;1.98;;;17.40;99.90;;;;;;5069579;28;20550;-78
2022/08/27 04:58:47;;;;;;;8.98;2.20;;;17.40;99.90;;;;;;5088532;28;20036;-78
2022/08/27 05:01:18;;;;;;;6.22;1.77;;;17.30;99.90;;;;;;5069337;28;20040;-79
2022/08/27 05:03:44;;;;;;;6.53;1.95;;;17.30;99.90;;;;;;5069187;28;20044;-78
2022/08/27 05:06:11;;;;;;;6.50;1.92;;;17.20;99.90;;;;;;5094238;28;20111;-78
2022/08/27 05:08:38;;;;;;;8.10;2.05;;;17.20;99.90;;;;;;5088662;28;20043;-79
2022/08/27 05:11:06;;;;;;;6.88;2.00;;;17.20;99.90;;;;;;5090645;28;20123;-79
2022/08/27 05:13:32;;;;;;;8.40;2.30;;;17.10;99.90;;;;;;5085503;28;20130;-77
2022/08/27 05:16:00;;;;;;;5.95;1.73;;;17.10;99.90;;;;;;5082243;28;20048;-78
2022/08/27 05:18:27;;;;;;;7.20;2.13;;;17.10;99.90;;;;;;5083713;28;20054;-78
2022/08/27 05:20:53;;;;;;;6.55;2.28;;;17.10;99.90;;;;;;5079422;28;20055;-79
2022/08/27 05:23:19;;;;;;;6.95;2.78;;;17.10;99.90;;;;;;5091751;28;20048;-78
2022/08/27 05:25:47;;;;;;;5.50;2.10;;;17.10;99.90;;;;;;5068505;28;20052;-78
2022/08/27 05:28:14;;;;;;;9.55;2.50;;;17.00;99.90;;;;;;5057545;28;20138;-78
2022/08/27 05:30:43;;;;;;;5.43;2.10;;;17.00;99.90;;;;;;5066279;28;20044;-78
2022/08/27 05:33:09;;;;;;;5.65;2.10;;;17.00;99.90;;;;;;5081857;28;20456;-79
2022/08/27 05:35:47;;;;;;;6.07;2.27;;;17.00;99.90;;;;;;5064636;28;20495;-78
2022/08/27 05:38:13;;;;;;;5.90;2.08;;;17.00;99.90;;;;;;5088696;28;20051;-78
2022/08/27 05:40:39;;;;;;;6.22;2.38;;;17.00;99.90;;;;;;5070526;28;20442;-78
2022/08/27 05:43:05;;;;;;;7.95;2.33;;;16.90;99.90;;;;;;5084207;28;20037;-78
2022/08/27 05:45:32;;;;;;;7.17;2.33;;;16.90;99.90;;;;;;5079685;28;20040;-78
2022/08/27 05:47:58;;;;;;;8.95;2.53;;;16.90;99.90;;;;;;5077417;28;20390;-78
2022/08/27 05:50:26;;;;;;;8.57;2.65;;;16.90;99.90;;;;;;5080549;28;20047;-78
2022/08/27 05:52:52;;;;;;;3.83;2.10;;;17.00;99.90;;;;;;5085197;28;20043;-76
2022/08/27 05:55:19;;;;;;;7.68;2.35;;;17.00;99.90;;;;;;5082100;28;22091;-75
2022/08/27 05:57:44;;;;;;;7.80;2.22;;;17.10;99.90;;;;;;5067501;28;20058;-75
2022/08/27 06:02:55;;;;;;;7.03;2.30;;;17.20;99.90;;;;;;5056251;28;20147;-75
2022/08/27 06:05:20;;;;;;;7.78;2.10;;;17.30;99.90;;;;;;5067689;28;20130;-75
2022/08/27 06:07:47;;;;;;;6.18;2.15;;;17.40;99.90;;;;;;5066302;28;20105;-75
2022/08/27 06:10:13;;;;;;;5.30;1.80;;;17.40;99.90;;;;;;5063137;28;20040;-75
2022/08/27 06:12:38;;;;;;;6.63;2.47;;;17.50;99.90;;;;;;5084849;28;20039;-77
2022/08/27 06:15:05;;;;;;;5.88;2.00;;;17.60;99.90;;;;;;5066514;28;20035;-76
2022/08/27 06:17:30;;;;;;;7.87;2.37;;;17.60;99.90;;;;;;5084071;28;20043;-77
2022/08/27 06:19:56;;;;;;;6.90;2.20;;;17.60;99.90;;;;;;5081653;28;20306;-77
2022/08/27 06:22:22;;;;;;;7.85;2.00;;;17.60;99.90;;;;;;5057988;28;20044;-77
2022/08/27 06:24:48;;;;;;;6.05;2.03;;;17.70;99.90;;;;;;5062895;28;20036;-77
2022/08/27 06:27:16;;;;;;;5.25;1.90;;;17.70;99.90;;;;;;5079515;28;20441;-78
2022/08/27 06:29:43;;;;;;;5.10;1.75;;;17.70;99.90;;;;;;5082007;28;20044;-74
2022/08/27 06:32:10;;;;;;;6.57;2.55;;;17.70;99.90;;;;;;5074769;28;20036;-79
2022/08/27 06:34:36;;;;;;;9.80;2.72;;;17.80;99.90;;;;;;5089214;28;20394;-78
2022/08/27 06:37:02;;;;;;;6.07;1.73;;;17.80;99.90;;;;;;5084585;28;20567;-80
2022/08/27 06:39:28;;;;;;;5.90;2.03;;;17.90;99.90;;;;;;5068343;28;20489;-79
2022/08/27 06:41:53;;;;;;;5.38;1.90;;;18.00;99.90;;;;;;5085430;28;20085;-77
2022/08/27 06:44:20;;;;;;;5.57;1.80;;;18.00;99.90;;;;;;5070773;28;20052;-78
2022/08/27 06:46:45;;;;;;;7.03;2.10;;;18.10;99.90;;;;;;5087334;28;20036;-80
2022/08/27 06:49:11;;;;;;;9.32;2.47;;;18.20;99.90;;;;;;5078536;28;20032;-80
2022/08/27 06:51:38;;;;;;;6.43;1.90;;;18.30;99.90;;;;;;5068560;28;20039;-80
2022/08/27 06:54:10;;;;;;;5.32;2.13;;;18.30;99.90;;;;;;5063584;28;20483;-76
2022/08/27 06:56:37;;;;;;;6.28;1.77;;;18.40;99.90;;;;;;5082739;28;20072;-79
2022/08/27 06:59:07;;;;;;;6.82;2.22;;;18.50;99.90;;;;;;5069044;28;20127;-78
2022/08/27 07:01:36;;;;;;;7.85;2.13;;;18.60;99.90;;;;;;5065280;28;20048;-78
2022/08/27 07:04:05;;;;;;;5.32;1.77;;;18.60;99.90;;;;;;5083526;28;20100;-77
2022/08/27 07:06:31;;;;;;;6.75;2.10;;;18.60;99.90;;;;;;5083444;28;20035;-77
2022/08/27 07:08:58;;;;;;;5.78;1.77;;;18.60;99.90;;;;;;5068913;28;20048;-78
2022/08/27 07:11:25;;;;;;;6.65;1.95;;;18.60;99.90;;;;;;5090877;28;20039;-78
2022/08/27 07:13:51;;;;;;;6.97;1.85;;;18.60;99.90;;;;;;5088764;28;20097;-79
2022/08/27 07:16:20;;;;;;;5.30;1.87;;;18.60;99.90;;;;;;5071748;28;20032;-79
2022/08/27 07:18:47;;;;;;;6.10;2.08;;;18.70;99.90;;;;;;5072963;28;20398;-78
2022/08/27 07:21:13;;;;;;;;;;;18.70;99.90;;;;;;5070650;28;20054;-78
2022/08/27 07:23:38;;;;;;;7.60;1.88;;;18.70;99.90;;;;;;5070188;28;19919;-80
2022/08/27 07:26:09;;;;;;;7.40;2.15;;;18.80;99.90;;;;;;5091644;28;20097;-80
2022/08/27 07:28:36;;;;;;;7.03;2.00;;;18.90;99.90;;;;;;5083692;28;20082;-78
2022/08/27 07:31:04;;;;;;;5.88;2.10;;;19.00;99.90;;;;;;5099640;28;20078;-77
2022/08/27 07:33:30;;;;;;;;;;;19.00;99.90;;;;;;5104513;28;20779;-79
2022/08/27 07:35:55;;;;;;;6.00;1.92;;;19.00;99.90;;;;;;5093679;28;19927;-79
2022/08/27 07:38:21;;;;;;;6.28;1.60;;;19.10;99.90;;;;;;5070765;28;20040;-79
2022/08/27 07:40:47;;;;;;;6.57;1.90;;;19.20;99.90;;;;;;5091728;28;20044;-79
2022/08/27 07:46:00;;;;;;;9.15;2.38;;;19.30;99.90;;;;;;5072355;28;20465;-79
2022/08/27 07:48:26;;;;;;;11.35;2.45;;;19.40;99.90;;;;;;5072837;28;20040;-79
2022/08/27 07:50:52;;;;;;;6.68;2.22;;;19.50;99.90;;;;;;5069474;28;20094;-78
2022/08/27 07:53:19;;;;;;;6.63;2.22;;;19.50;99.90;;;;;;5072442;28;20043;-78
2022/08/27 07:55:44;;;;;;;9.05;2.30;;;19.60;99.90;;;;;;5105780;28;20051;-78
2022/08/27 07:58:12;;;;;;;8.63;2.40;;;19.60;99.90;;;;;;5065667;28;20636;-77
2022/08/27 08:00:43;;;;;;;5.85;1.75;;;19.60;99.90;;;;;;5061426;28;20446;-76
2022/08/27 08:03:11;;;;;;;10.00;2.42;;;19.60;99.90;;;;;;5088763;28;20502;-76
2022/08/27 08:05:43;;;;;;;7.88;2.10;;;19.60;99.90;;;;;;5086851;28;20674;-77
2022/08/27 08:08:10;;;;;;;6.80;2.03;;;19.70;99.90;;;;;;5093111;28;20079;-77
2022/08/27 08:10:36;;;;;;;;;;;19.70;99.90;;;;;;5074150;28;20043;-77
2022/08/27 08:13:02;;;;;;;6.68;2.17;;;19.80;99.90;;;;;;5070417;28;20259;-77
2022/08/27 08:15:28;;;;;;;7.13;1.98;;;19.80;99.90;;;;;;5098161;28;20035;-80
2022/08/27 08:17:54;;;;;;;5.97;2.00;;;19.90;99.90;;;;;;5064336;28;20045;-77
2022/08/27 08:20:20;;;;;;;7.25;1.90;;;19.90;99.90;;;;;;5091419;28;20043;-78
2022/08/27 08:22:46;;;;;;;5.20;1.58;;;20.00;99.90;;;;;;5095530;28;20040;-79
2022/08/27 08:25:12;;;;;;;6.13;2.13;;;20.10;99.90;;;;;;5090905;28;20032;-80
2022/08/27 08:27:40;;;;;;;7.88;1.70;;;20.10;99.90;;;;;;5069163;28;20483;-79
2022/08/27 08:30:24;;;;;;;8.02;1.50;;;20.20;99.90;;;;;;5087618;28;20079;-82
2022/08/27 08:32:50;;;;;;;7.40;1.88;;;20.20;99.90;;;;;;5091748;28;20084;-79
2022/08/27 08:35:16;;;;;;;7.45;1.77;;;20.30;99.90;;;;;;5089776;28;20495;-79
2022/08/27 08:37:43;;;;;;;7.63;1.83;;;20.30;99.90;;;;;;5089630;28;20036;-82
2022/08/27 08:40:10;;;;;;;7.03;1.60;;;20.30;99.90;;;;;;5085732;28;20044;-80
2022/08/27 08:42:45;;;;;;;10.63;2.30;;;20.40;99.90;;;;;;5082533;28;20123;-76
2022/08/27 08:45:31;;;;;;;7.30;1.88;;;20.50;99.90;;;;;;5067353;28;20055;-78
2022/08/27 08:48:15;;;;;;;5.22;1.58;;;20.70;99.90;;;;;;5083962;28;20048;-78
2022/08/27 08:51:08;;;;;;;7.40;1.98;;;20.80;99.90;;;;;;5084531;28;20035;-77
2022/08/27 08:53:51;;;;;;;6.72;1.77;;;21.00;99.90;;;;;;5069828;28;20052;-77
2022/08/27 08:56:53;;;;;;;6.13;1.83;;;21.10;99.90;;;;;;5073447;28;20040;-76
2022/08/27 08:59:26;;;;;;;7.18;1.60;;;21.30;99.90;;;;;;5058661;28;20044;-84
2022/08/27 09:01:53;;;;;;;7.35;1.92;;;21.40;99.90;;;;;;5086012;28;20514;-83
2022/08/27 09:04:20;;;;;;;8.40;2.20;;;21.50;99.90;;;;;;5088106;28;20126;-79
2022/08/27 09:06:52;;;;;;;7.20;1.70;;;21.50;99.90;;;;;;5072809;28;20041;-83
2022/08/27 09:09:20;;;;;;;7.72;1.77;;;21.40;99.90;;;;;;5056126;28;20355;-82
2022/08/27 09:11:51;;;;;;;6.40;1.50;;;21.20;99.90;;;;;;5088868;28;20062;-80
2022/08/27 09:14:34;;;;;;;5.90;1.63;;;21.00;99.90;;;;;;5087281;28;20032;-79
2022/08/27 09:17:01;;;;;;;6.90;1.83;;;21.00;99.90;;;;;;5078672;28;20047;-76
2022/08/27 09:19:28;;;;;;;7.72;2.00;;;20.80;99.90;;;;;;5100129;28;20530;-78
2022/08/27 09:22:09;;;;;;;5.90;1.73;;;20.80;99.90;;;;;;5087993;28;20052;-77
2022/08/27 09:24:58;;;;;;;6.50;1.80;;;20.70;99.90;;;;;;5066605;28;20367;-79
2022/08/27 09:27:24;;;;;;;8.02;1.90;;;20.70;99.90;;;;;;5083127;28;20096;-79
2022/08/27 09:29:55;;;;;;;11.77;2.10;;;20.60;99.90;;;;;;5087421;28;20406;-81
2022/08/27 09:32:30;;;;;;;7.78;1.90;;;20.60;99.90;;;;;;5083441;28;20611;-81
2022/08/27 09:35:02;;;;;;;9.02;2.10;;;20.60;99.90;;;;;;5063671;28;20165;-80
2022/08/27 09:37:38;;;;;;;8.70;2.30;;;20.50;99.90;;;;;;5067558;28;20040;-80
2022/08/27 09:40:16;;;;;;;8.70;1.70;;;20.50;99.90;;;;;;5084169;28;20074;-81
2022/08/27 09:42:45;;;;;;;7.70;2.05;;;20.50;99.90;;;;;;5065366;28;20306;-80
2022/08/27 09:45:16;;;;;;;9.77;2.13;;;20.50;99.90;;;;;;5065867;28;20387;-80
2022/08/27 09:47:45;;;;;;;7.38;1.90;;;20.50;99.90;;;;;;5067800;28;20047;-80
2022/08/27 09:50:11;;;;;;;8.55;2.00;;;20.60;99.90;;;;;;5084916;28;20044;-80
2022/08/27 09:52:50;;;;;;;12.05;2.13;;;20.60;99.90;;;;;;5072000;28;20391;-79
2022/08/27 09:55:44;;;;;;;11.30;2.38;;;20.70;99.90;;;;;;5081595;28;20028;-79
2022/08/27 09:58:32;;;;;;;10.07;2.30;;;20.70;99.90;;;;;;5087225;28;20359;-80
2022/08/27 10:01:15;;;;;;;10.02;2.20;;;20.80;99.90;;;;;;5077482;28;20050;-80
2022/08/27 10:03:42;;;;;;;8.07;1.80;;;20.80;99.90;;;;;;5060039;28;20087;-80
2022/08/27 10:06:09;;;;;;;6.97;1.87;;;20.80;99.90;;;;;;5090058;28;20051;-80
2022/08/27 10:08:46;;;;;;;8.95;1.80;;;20.80;99.90;;;;;;5069730;28;20048;-80
2022/08/27 10:11:27;;;;;;;7.95;1.85;;;20.90;99.90;;;;;;5069108;28;20491;-79
2022/08/27 10:13:58;;;;;;;8.25;1.88;;;20.90;99.90;;;;;;5066960;28;20201;-80
2022/08/27 10:16:45;;;;;;;8.48;1.65;;;20.90;99.90;;;;;;5067206;28;20119;-81
2022/08/27 10:19:27;;;;;;;8.38;1.90;;;21.00;99.90;;;;;;5066691;28;20076;-78
2022/08/27 10:22:11;;;;;;;7.15;1.85;;;21.10;99.90;;;;;;5070654;28;20048;-80
2022/08/27 10:25:00;;;;;;;6.13;1.52;;;21.30;99.90;;;;;;5085307;28;20074;-80
2022/08/27 10:27:48;;;;;;;4.35;1.40;;;21.40;99.90;;;;;;5079818;28;20467;-80
2022/08/27 10:30:53;;;;;;;6.78;1.70;;;21.50;99.90;;;;;;5068860;28;20091;-80
2022/08/27 10:33:31;;;;;;;5.93;2.00;;;21.40;99.90;;;;;;5073340;28;20105;-80
2022/08/27 10:36:05;;;;;;;7.75;1.90;;;21.40;99.90;;;;;;5067673;28;20122;-80
2022/08/27 10:38:41;;;;;;;7.90;1.65;;;21.20;99.90;;;;;;5065038;28;20036;-80
2022/08/27 10:41:35;;;;;;;8.07;1.93;;;21.10;99.90;;;;;;5080643;28;20032;-79
2022/08/27 10:44:00;;;;;;;7.97;2.22;;;20.90;99.90;;;;;;5068750;28;20298;-80
2022/08/27 10:46:57;;;;;;;7.55;1.73;;;20.90;99.90;;;;;;5067683;28;20168;-80
2022/08/27 10:49:48;;;;;;;6.85;1.60;;;20.90;99.90;;;;;;5051063;28;20055;-79
2022/08/27 10:52:30;;;;;;;6.93;1.77;;;20.90;99.90;;;;;;5084441;28;20056;-79
2022/08/27 10:55:20;;;;;;;7.40;2.03;;;21.00;99.90;;;;;;5083588;28;20601;-79
2022/08/27 10:57:49;;;;;;;7.38;1.88;;;21.10;99.90;;;;;;5067309;28;20075;-79
2022/08/27 11:00:20;;;;;;;7.57;2.20;;;21.20;99.90;;;;;;5064757;28;20044;-80
2022/08/27 11:02:55;;;;;;;10.23;1.90;;;21.30;99.90;;;;;;5067010;28;20097;-79
2022/08/27 11:05:28;;;;;;;7.75;1.98;;;21.30;99.90;;;;;;5086270;28;20036;-80
2022/08/27 11:08:04;;;;;;;6.95;1.60;;;21.30;99.90;;;;;;5068518;28;20052;-80
2022/08/27 11:10:35;;;;;;;8.95;1.83;;;21.40;99.90;;;;;;5063810;28;20075;-80
2022/08/27 11:13:49;;;;;;;7.45;2.05;;;21.40;99.90;;;;;;5068299;28;20040;-80
2022/08/27 11:16:23;;;;;;;7.85;1.55;;;21.50;99.90;;;;;;5021582;28;20041;-80
2022/08/27 11:18:58;;;;;;;5.63;1.70;;;21.80;99.90;;;;;;5026418;28;20060;-80
2022/08/27 11:21:33;;;;;;;9.30;1.88;;;22.20;99.90;;;;;;5072120;28;20071;-80
2022/08/27 11:24:12;;;;;;;6.40;1.70;;;22.30;99.90;;;;;;5054770;28;20080;-80
2022/08/27 11:26:40;;;;;;;6.93;1.80;;;22.30;99.90;;;;;;5083337;28;20091;-80
2022/08/27 11:29:23;;;;;;;10.50;2.08;;;22.30;99.90;;;;;;5086743;28;20056;-80
2022/08/27 11:32:03;;;;;;;7.25;1.77;;;22.20;99.90;;;;;;5086171;28;20044;-80
2022/08/27 11:35:07;;;;;;;7.38;1.58;;;22.20;99.90;;;;;;5068574;28;20103;-80
2022/08/27 11:38:07;;;;;;;7.95;2.33;;;22.20;99.10;;;;;;5040756;28;20079;-80
2022/08/27 11:40:51;;;;;;;6.50;2.25;;;22.10;99.90;;;;;;5070428;28;20105;-80
2022/08/27 11:43:21;;;;;;;8.05;1.73;;;22.00;99.90;;;;;;5068388;28;20455;-80
2022/08/27 11:46:24;;;;;;;7.38;1.70;;;22.10;99.90;;;;;;5067057;28;20044;-80
2022/08/27 11:49:00;;;;;;;7.97;1.60;;;22.00;99.90;;;;;;5064323;28;20052;-80
2022/08/27 11:51:35;;;;;;;6.50;1.95;;;21.90;99.90;;;;;;5066722;28;20490;-80
2022/08/27 11:54:06;;;;;;;8.30;1.95;;;21.90;99.90;;;;;;5067994;28;20076;-83
2022/08/27 11:56:41;;;;;;;7.03;1.90;;;21.80;99.90;;;;;;5083441;28;20044;-80
2022/08/27 11:59:28;;;;;;;6.57;1.67;;;21.80;99.90;;;;;;5074863;28;20491;-81
2022/08/27 12:02:09;;;;;;;7.18;1.67;;;21.90;99.90;;;;;;5083525;28;20099;-81
2022/08/27 12:04:38;;;;;;;7.47;2.15;;;22.00;99.90;;;;;;5054604;28;20043;-81
2022/08/27 12:07:12;;;;;;;8.25;2.10;;;22.20;99.90;;;;;;5088732;28;20105;-81
2022/08/27 12:09:54;;;;;;;8.18;1.88;;;22.40;99.40;;;;;;5091331;28;20127;-81
2022/08/27 12:12:38;;;;;;;8.85;1.90;;;22.60;98.00;;;;;;5071808;28;20471;-81
2022/08/27 12:15:23;;;;;;;7.45;1.75;;;22.70;96.40;;;;;;5086954;28;20059;-82
2022/08/27 12:18:26;;;;;;;8.10;1.60;;;22.80;97.60;;;;;;5082404;28;20445;-81
2022/08/27 12:21:02;;;;;;;7.18;1.60;;;23.00;97.10;;;;;;5088437;28;20054;-82
2022/08/27 12:23:39;;;;;;;10.07;1.90;;;23.10;94.30;;;;;;5090872;28;20048;-81
2022/08/27 12:26:24;;;;;;;8.68;1.77;;;23.10;95.10;;;;;;5084775;28;20054;-82
2022/08/27 12:29:19;;;;;;;10.07;1.80;;;23.00;93.90;;;;;;5070702;28;22197;-81
2022/08/27 12:31:47;;;;;;;6.65;1.95;;;22.90;93.70;;;;;;5069476;28;20673;-81
2022/08/27 12:34:17;;;;;;;7.25;1.70;;;22.80;95.50;;;;;;5087537;28;20119;-82
2022/08/27 12:36:46;;;;;;;6.72;1.83;;;22.60;93.40;;;;;;5092443;28;20040;-81
2022/08/27 12:39:22;;;;;;;6.95;1.55;;;22.50;94.50;;;;;;5070700;28;20048;-81
2022/08/27 12:41:49;;;;;;;9.70;1.95;;;22.50;95.20;;;;;;5088464;28;20048;-82
2022/08/27 12:44:22;;;;;;;6.20;1.42;;;22.50;94.80;;;;;;5089918;28;20075;-81
2022/08/27 12:46:51;;;;;;;6.65;1.70;;;22.60;92.80;;;;;;5070331;28;20048;-81
2022/08/27 12:49:20;;;;;;;4.75;1.70;;;22.70;92.40;;;;;;5089235;28;20039;-81
2022/08/27 12:51:47;;;;;;;7.53;1.48;;;22.70;91.60;;;;;;5069390;28;20475;-81
2022/08/27 12:54:58;;;;;;;6.15;1.50;;;22.70;92.70;;;;;;5070789;28;20534;-81
2022/08/27 12:58:14;;;;;;;8.00;1.35;;;22.70;89.90;;;;;;5052138;28;20098;-81
2022/08/27 13:00:58;;;;;;;;;;;22.70;89.00;;;;;;5036098;28;20067;-81
2022/08/27 13:03:37;;;;;;;5.63;1.67;;;22.60;90.50;;;;;;5084988;28;19926;-81
2022/08/27 13:06:14;;;;;;;5.68;1.73;;;22.60;90.30;;;;;;5063870;28;20132;-81
2022/08/27 13:08:39;;;;;;;4.03;1.70;;;22.60;92.50;;;;;;5065631;28;20040;-81
2022/08/27 13:11:20;;;;;;;9.00;1.70;;;22.70;93.70;;;;;;5087964;28;20123;-81
2022/08/27 13:13:47;;;;;;;8.88;1.70;;;22.80;91.80;;;;;;5068492;28;20048;-81
2022/08/27 13:16:13;;;;;;;7.60;2.00;;;22.70;89.80;;;;;;5067252;28;20051;-85